sensor_id;sensor_type;location;lat;lon;timestamp;pressure;altitude;pressure_sealevel;temperature;humidity
13612;BME280;6877;51.436;6.774;2024-02-26T00:00:57;99353.22;;;5.02;100.00
13612;BME280;6877;51.436;6.774;2024-02-26T00:03:29;99355.88;;;4.99;100.00
13612;BME280;6877;51.436;6.774;2024-02-26T00:05:55;99352.53;;;4.92;100.00
13612;BME280;6877;51.436;6.774;2024-02-26T00:08:22;99360.47;;;4.81;100.00
13612;BME280;6877;51.436;6.774;2024-02-26T00:10:49;99373.63;;;4.71;100.00
13612;BME280;6877;51.436;6.774;2024-02-26T00:13:15;99369.50;;;4.59;100.00
13612;BME280;6877;51.436;6.774;2024-02-26T00:15:47;99372.19;;;4.54;100.00
13612;BME280;6877;51.436;6.774;2024-02-26T00:18:18;99362.75;;;4.49;100.00
13612;BME280;6877;51.436;6.774;2024-02-26T00:20:49;99371.44;;;4.48;100.00
13612;BME280;6877;51.436;6.774;2024-02-26T00:23:16;99368.84;;;4.48;100.00
13612;BME280;6877;51.436;6.774;2024-02-26T00:25:47;99374.03;;;4.46;100.00
13612;BME280;6877;51.436;6.774;2024-02-26T00:28:19;99366.25;;;4.48;100.00
13612;BME280;6877;51.436;6.774;2024-02-26T00:30:46;99363.56;;;4.51;100.00
13612;BME280;6877;51.436;6.774;2024-02-26T00:33:18;99361.81;;;4.53;100.00
13612;BME280;6877;51.436;6.774;2024-02-26T00:35:49;99351.44;;;4.54;100.00
13612;BME280;6877;51.436;6.774;2024-02-26T00:38:20;99360.03;;;4.58;100.00
13612;BME280;6877;51.436;6.774;2024-02-26T00:40:47;99349.56;;;4.64;100.00
13612;BME280;6877;51.436;6.774;2024-02-26T00:43:13;99340.00;;;4.66;100.00
13612;BME280;6877;51.436;6.774;2024-02-26T00:45:45;99347.78;;;4.68;100.00
13612;BME280;6877;51.436;6.774;2024-02-26T00:48:18;99340.88;;;4.67;100.00
13612;BME280;6877;51.436;6.774;2024-02-26T00:50:47;99336.56;;;4.67;100.00
13612;BME280;6877;51.436;6.774;2024-02-26T00:53:13;99324.41;;;4.69;100.00
13612;BME280;6877;51.436;6.774;2024-02-26T00:55:40;99352.06;;;4.70;100.00
13612;BME280;6877;51.436;6.774;2024-02-26T00:58:11;99387.38;;;4.74;100.00
13612;BME280;6877;51.436;6.774;2024-02-26T01:00:42;99379.63;;;4.74;100.00
13612;BME280;6877;51.436;6.774;2024-02-26T01:03:09;99382.22;;;4.73;100.00
13612;BME280;6877;51.436;6.774;2024-02-26T01:05:36;99364.88;;;4.78;100.00
13612;BME280;6877;51.436;6.774;2024-02-26T01:08:09;99360.41;;;4.86;100.00
13612;BME280;6877;51.436;6.774;2024-02-26T01:10:40;99364.50;;;4.98;100.00
13612;BME280;6877;51.436;6.774;2024-02-26T01:13:12;99360.16;;;5.01;100.00
13612;BME280;6877;51.436;6.774;2024-02-26T01:15:43;99352.28;;;5.06;100.00
13612;BME280;6877;51.436;6.774;2024-02-26T01:18:10;99360.06;;;5.06;100.00
13612;BME280;6877;51.436;6.774;2024-02-26T01:20:41;99368.66;;;5.08;100.00
13612;BME280;6877;51.436;6.774;2024-02-26T01:23:08;99370.41;;;5.06;100.00
13612;BME280;6877;51.436;6.774;2024-02-26T01:25:34;99370.41;;;5.06;100.00
13612;BME280;6877;51.436;6.774;2024-02-26T01:28:01;99372.13;;;5.07;100.00
13612;BME280;6877;51.436;6.774;2024-02-26T01:30:27;99376.47;;;5.06;100.00
13612;BME280;6877;51.436;6.774;2024-02-26T01:32:54;99381.63;;;5.08;100.00
13612;BME280;6877;51.436;6.774;2024-02-26T01:35:20;99376.50;;;5.05;100.00
13612;BME280;6877;51.436;6.774;2024-02-26T01:37:52;99377.34;;;5.05;100.00
13612;BME280;6877;51.436;6.774;2024-02-26T01:40:26;99379.09;;;5.05;100.00
13612;BME280;6877;51.436;6.774;2024-02-26T01:42:59;99382.53;;;5.04;100.00
13612;BME280;6877;51.436;6.774;2024-02-26T01:45:30;99377.41;;;5.01;100.00
13612;BME280;6877;51.436;6.774;2024-02-26T01:47:57;99377.47;;;4.98;100.00
13612;BME280;6877;51.436;6.774;2024-02-26T01:50:24;99373.19;;;4.97;100.00
13612;BME280;6877;51.436;6.774;2024-02-26T01:52:51;99375.75;;;4.98;100.00
13612;BME280;6877;51.436;6.774;2024-02-26T01:55:19;99386.09;;;5.00;100.00
13612;BME280;6877;51.436;6.774;2024-02-26T01:57:51;99378.34;;;4.98;100.00
13612;BME280;6877;51.436;6.774;2024-02-26T02:00:24;99379.25;;;4.96;100.00
13612;BME280;6877;51.436;6.774;2024-02-26T02:02:55;99386.19;;;4.95;100.00
13612;BME280;6877;51.436;6.774;2024-02-26T02:05:23;99386.19;;;4.95;100.00
13612;BME280;6877;51.436;6.774;2024-02-26T02:07:49;99380.13;;;4.95;100.00
13612;BME280;6877;51.436;6.774;2024-02-26T02:10:22;99378.47;;;4.91;100.00
13612;BME280;6877;51.436;6.774;2024-02-26T02:12:49;99381.09;;;4.87;100.00
13612;BME280;6877;51.436;6.774;2024-02-26T02:15:16;99377.75;;;4.82;100.00
13612;BME280;6877;51.436;6.774;2024-02-26T02:17:42;99376.88;;;4.82;100.00
13612;BME280;6877;51.436;6.774;2024-02-26T02:20:17;99372.56;;;4.82;100.00
13612;BME280;6877;51.436;6.774;2024-02-26T02:22:49;99370.03;;;4.79;100.00
13612;BME280;6877;51.436;6.774;2024-02-26T02:25:20;99374.38;;;4.77;100.00
13612;BME280;6877;51.436;6.774;2024-02-26T02:27:54;99378.72;;;4.77;100.00
13612;BME280;6877;51.436;6.774;2024-02-26T02:30:29;99389.94;;;4.76;100.00
13612;BME280;6877;51.436;6.774;2024-02-26T02:33:00;99392.53;;;4.76;100.00
13612;BME280;6877;51.436;6.774;2024-02-26T02:35:27;99383.91;;;4.77;100.00
13612;BME280;6877;51.436;6.774;2024-02-26T02:37:58;99393.47;;;4.73;100.00
13612;BME280;6877;51.436;6.774;2024-02-26T02:40:25;99390.94;;;4.69;100.00
13612;BME280;6877;51.436;6.774;2024-02-26T02:42:51;99391.84;;;4.66;100.00
13612;BME280;6877;51.436;6.774;2024-02-26T02:45:18;99391.84;;;4.66;100.00
13612;BME280;6877;51.436;6.774;2024-02-26T02:47:45;99397.00;;;4.66;100.00
13612;BME280;6877;51.436;6.774;2024-02-26T02:50:16;99391.84;;;4.66;100.00
13612;BME280;6877;51.436;6.774;2024-02-26T02:52:43;99394.50;;;4.61;100.00
13612;BME280;6877;51.436;6.774;2024-02-26T02:55:09;99392.81;;;4.59;100.00
13612;BME280;6877;51.436;6.774;2024-02-26T02:57:40;99386.84;;;4.54;100.00
13612;BME280;6877;51.436;6.774;2024-02-26T03:00:09;99392.91;;;4.54;100.00
13612;BME280;6877;51.436;6.774;2024-02-26T03:02:41;99395.47;;;4.56;100.00
13612;BME280;6877;51.436;6.774;2024-02-26T03:05:13;99391.97;;;4.57;100.00
13612;BME280;6877;51.436;6.774;2024-02-26T03:07:40;99398.84;;;4.61;100.00
13612;BME280;6877;51.436;6.774;2024-02-26T03:10:11;99388.53;;;4.58;100.00
13612;BME280;6877;51.436;6.774;2024-02-26T03:12:38;99392.91;;;4.54;100.00
13612;BME280;6877;51.436;6.774;2024-02-26T03:15:05;99398.19;;;4.47;100.00
13612;BME280;6877;51.436;6.774;2024-02-26T03:17:36;99402.69;;;4.35;100.00
13612;BME280;6877;51.436;6.774;2024-02-26T03:20:09;99408.84;;;4.27;100.00
13612;BME280;6877;51.436;6.774;2024-02-26T03:22:35;99402.06;;;4.18;100.00
13612;BME280;6877;51.436;6.774;2024-02-26T03:25:02;99391.03;;;4.07;100.00
13612;BME280;6877;51.436;6.774;2024-02-26T03:27:28;99387.72;;;3.95;100.00
13612;BME280;6877;51.436;6.774;2024-02-26T03:29:55;99375.81;;;3.82;100.00
13612;BME280;6877;51.436;6.774;2024-02-26T03:32:21;99382.00;;;3.72;100.00
13612;BME280;6877;51.436;6.774;2024-02-26T03:34:52;99389.84;;;3.66;100.00
13612;BME280;6877;51.436;6.774;2024-02-26T03:37:22;99396.81;;;3.58;100.00
13612;BME280;6877;51.436;6.774;2024-02-26T03:39:48;99381.31;;;3.55;100.00
13612;BME280;6877;51.436;6.774;2024-02-26T03:42:15;99390.00;;;3.51;100.00
13612;BME280;6877;51.436;6.774;2024-02-26T03:44:42;99390.81;;;3.54;100.00
13612;BME280;6877;51.436;6.774;2024-02-26T03:47:09;99400.34;;;3.51;100.00
13612;BME280;6877;51.436;6.774;2024-02-26T03:49:40;99403.78;;;3.49;100.00
13612;BME280;6877;51.436;6.774;2024-02-26T03:52:07;99402.09;;;3.48;100.00
13612;BME280;6877;51.436;6.774;2024-02-26T03:54:33;99393.50;;;3.45;100.00
13612;BME280;6877;51.436;6.774;2024-02-26T03:57:05;99390.91;;;3.48;100.00
13612;BME280;6877;51.436;6.774;2024-02-26T03:59:31;99401.25;;;3.46;100.00
13612;BME280;6877;51.436;6.774;2024-02-26T04:02:02;99395.28;;;3.41;100.00
13612;BME280;6877;51.436;6.774;2024-02-26T04:04:29;99386.63;;;3.42;100.00
13612;BME280;6877;51.436;6.774;2024-02-26T04:06:56;99389.22;;;3.42;100.00
13612;BME280;6877;51.436;6.774;2024-02-26T04:09:22;99387.50;;;3.44;100.00
13612;BME280;6877;51.436;6.774;2024-02-26T04:11:48;99390.94;;;3.43;100.00
13612;BME280;6877;51.436;6.774;2024-02-26T04:14:15;99382.34;;;3.40;100.00
13612;BME280;6877;51.436;6.774;2024-02-26T04:16:46;99395.28;;;3.41;100.00
13612;BME280;6877;51.436;6.774;2024-02-26T04:19:17;99389.19;;;3.45;100.00
13612;BME280;6877;51.436;6.774;2024-02-26T04:21:49;99397.00;;;3.44;100.00
13612;BME280;6877;51.436;6.774;2024-02-26T04:24:15;99399.56;;;3.44;100.00
13612;BME280;6877;51.436;6.774;2024-02-26T04:26:42;99398.69;;;3.45;100.00
13612;BME280;6877;51.436;6.774;2024-02-26T04:29:13;99400.44;;;3.44;100.00
13612;BME280;6877;51.436;6.774;2024-02-26T04:31:45;99396.91;;;3.48;100.00
13612;BME280;6877;51.436;6.774;2024-02-26T04:34:17;99402.97;;;3.47;100.00
13612;BME280;6877;51.436;6.774;2024-02-26T04:36:49;99396.94;;;3.45;100.00
13612;BME280;6877;51.436;6.774;2024-02-26T04:39:20;99410.72;;;3.47;100.00
13612;BME280;6877;51.436;6.774;2024-02-26T04:41:52;99410.72;;;3.47;100.00
13612;BME280;6877;51.436;6.774;2024-02-26T04:44:23;99426.25;;;3.47;100.00
13612;BME280;6877;51.436;6.774;2024-02-26T04:46:55;99421.06;;;3.46;100.00
13612;BME280;6877;51.436;6.774;2024-02-26T04:49:21;99422.81;;;3.47;100.00
13612;BME280;6877;51.436;6.774;2024-02-26T04:51:48;99434.03;;;3.44;100.00
13612;BME280;6877;51.436;6.774;2024-02-26T04:54:15;99435.75;;;3.47;100.00
13612;BME280;6877;51.436;6.774;2024-02-26T04:56:47;99430.56;;;3.45;100.00
13612;BME280;6877;51.436;6.774;2024-02-26T04:59:13;99450.38;;;3.46;100.00
13612;BME280;6877;51.436;6.774;2024-02-26T05:01:45;99442.63;;;3.46;100.00
13612;BME280;6877;51.436;6.774;2024-02-26T05:04:16;99442.63;;;3.46;100.00
13612;BME280;6877;51.436;6.774;2024-02-26T05:06:43;99449.53;;;3.46;100.00
13612;BME280;6877;51.436;6.774;2024-02-26T05:09:17;99458.19;;;3.40;100.00
13612;BME280;6877;51.436;6.774;2024-02-26T05:11:43;99458.22;;;3.39;100.00
13612;BME280;6877;51.436;6.774;2024-02-26T05:14:16;99453.06;;;3.37;100.00
13612;BME280;6877;51.436;6.774;2024-02-26T05:16:47;99440.19;;;3.34;100.00
13612;BME280;6877;51.436;6.774;2024-02-26T05:19:14;99447.09;;;3.32;100.00
13612;BME280;6877;51.436;6.774;2024-02-26T05:21:43;99442.81;;;3.30;100.00
13612;BME280;6877;51.436;6.774;2024-02-26T05:24:18;99441.94;;;3.28;100.00
13612;BME280;6877;51.436;6.774;2024-02-26T05:26:49;99445.41;;;3.30;100.00
13612;BME280;6877;51.436;6.774;2024-02-26T05:29:15;99449.72;;;3.28;100.00
13612;BME280;6877;51.436;6.774;2024-02-26T05:31:42;99453.19;;;3.27;100.00
13612;BME280;6877;51.436;6.774;2024-02-26T05:34:09;99460.94;;;3.27;100.00
13612;BME280;6877;51.436;6.774;2024-02-26T05:36:40;99454.03;;;3.27;100.00
13612;BME280;6877;51.436;6.774;2024-02-26T05:39:07;99461.78;;;3.27;100.00
13612;BME280;6877;51.436;6.774;2024-02-26T05:41:33;99461.84;;;3.22;100.00
13612;BME280;6877;51.436;6.774;2024-02-26T05:44:06;99458.41;;;3.22;100.00
13612;BME280;6877;51.436;6.774;2024-02-26T05:46:35;99461.84;;;3.22;100.00
13612;BME280;6877;51.436;6.774;2024-02-26T05:49:02;99462.69;;;3.23;100.00
13612;BME280;6877;51.436;6.774;2024-02-26T05:51:29;99460.09;;;3.21;100.00
13612;BME280;6877;51.436;6.774;2024-02-26T05:54:00;99466.19;;;3.19;100.00
13612;BME280;6877;51.436;6.774;2024-02-26T05:56:27;99469.59;;;3.21;100.00
13612;BME280;6877;51.436;6.774;2024-02-26T05:58:53;99469.59;;;3.21;100.00
13612;BME280;6877;51.436;6.774;2024-02-26T06:01:25;99473.06;;;3.20;100.00
13612;BME280;6877;51.436;6.774;2024-02-26T06:03:57;99480.78;;;3.23;100.00
13612;BME280;6877;51.436;6.774;2024-02-26T06:06:28;99487.69;;;3.21;100.00
13612;BME280;6877;51.436;6.774;2024-02-26T06:08:55;99478.25;;;3.20;100.00
13612;BME280;6877;51.436;6.774;2024-02-26T06:11:21;99487.69;;;3.22;100.00
13612;BME280;6877;51.436;6.774;2024-02-26T06:13:49;99493.75;;;3.20;100.00
13612;BME280;6877;51.436;6.774;2024-02-26T06:16:15;99496.31;;;3.21;100.00
13612;BME280;6877;51.436;6.774;2024-02-26T06:18:41;99496.34;;;3.17;100.00
13612;BME280;6877;51.436;6.774;2024-02-26T06:21:11;99500.66;;;3.18;100.00
13612;BME280;6877;51.436;6.774;2024-02-26T06:23:43;99493.78;;;3.17;100.00
13612;BME280;6877;51.436;6.774;2024-02-26T06:26:12;99504.97;;;3.19;100.00
13612;BME280;6877;51.436;6.774;2024-02-26T06:28:43;99500.63;;;3.21;100.00
13612;BME280;6877;51.436;6.774;2024-02-26T06:31:11;99509.25;;;3.20;100.00
13612;BME280;6877;51.436;6.774;2024-02-26T06:33:37;99509.25;;;3.18;100.00
13612;BME280;6877;51.436;6.774;2024-02-26T06:36:04;99510.97;;;3.21;100.00
13612;BME280;6877;51.436;6.774;2024-02-26T06:38:30;99516.97;;;3.24;100.00
13612;BME280;6877;51.436;6.774;2024-02-26T06:41:02;99517.84;;;3.25;100.00
13612;BME280;6877;51.436;6.774;2024-02-26T06:43:34;99519.56;;;3.26;100.00
13612;BME280;6877;51.436;6.774;2024-02-26T06:46:06;99524.72;;;3.26;100.00
13612;BME280;6877;51.436;6.774;2024-02-26T06:48:33;99514.38;;;3.26;100.00
13612;BME280;6877;51.436;6.774;2024-02-26T06:50:59;99521.25;;;3.27;100.00
13612;BME280;6877;51.436;6.774;2024-02-26T06:53:26;99528.13;;;3.31;100.00
13612;BME280;6877;51.436;6.774;2024-02-26T06:55:52;99533.31;;;3.31;100.00
13612;BME280;6877;51.436;6.774;2024-02-26T06:58:19;99526.41;;;3.30;100.00
13612;BME280;6877;51.436;6.774;2024-02-26T07:00:50;99527.22;;;3.34;100.00
13612;BME280;6877;51.436;6.774;2024-02-26T07:03:16;99532.41;;;3.35;100.00
13612;BME280;6877;51.436;6.774;2024-02-26T07:05:48;99525.47;;;3.39;100.00
13612;BME280;6877;51.436;6.774;2024-02-26T07:08:15;99534.97;;;3.38;100.00
13612;BME280;6877;51.436;6.774;2024-02-26T07:10:46;99542.69;;;3.40;100.00
13612;BME280;6877;51.436;6.774;2024-02-26T07:13:13;99538.38;;;3.40;100.00
13612;BME280;6877;51.436;6.774;2024-02-26T07:15:39;99548.69;;;3.43;100.00
13612;BME280;6877;51.436;6.774;2024-02-26T07:18:05;99553.88;;;3.43;100.00
13612;BME280;6877;51.436;6.774;2024-02-26T07:20:37;99549.53;;;3.45;100.00
13612;BME280;6877;51.436;6.774;2024-02-26T07:23:08;99549.53;;;3.48;100.00
13612;BME280;6877;51.436;6.774;2024-02-26T07:25:40;99555.56;;;3.47;100.00
13612;BME280;6877;51.436;6.774;2024-02-26T07:28:12;99559.88;;;3.48;100.00
13612;BME280;6877;51.436;6.774;2024-02-26T07:30:38;99555.53;;;3.49;100.00
13612;BME280;6877;51.436;6.774;2024-02-26T07:33:10;99565.03;;;3.50;100.00
13612;BME280;6877;51.436;6.774;2024-02-26T07:35:41;99568.44;;;3.52;100.00
13612;BME280;6877;51.436;6.774;2024-02-26T07:38:12;99579.69;;;3.51;100.00
13612;BME280;6877;51.436;6.774;2024-02-26T07:40:40;99564.97;;;3.55;100.00
13612;BME280;6877;51.436;6.774;2024-02-26T07:43:11;99570.19;;;3.52;100.00
13612;BME280;6877;51.436;6.774;2024-02-26T07:45:43;99573.63;;;3.54;100.00
13612;BME280;6877;51.436;6.774;2024-02-26T07:48:09;99585.69;;;3.55;100.00
13612;BME280;6877;51.436;6.774;2024-02-26T07:50:36;99583.97;;;3.54;100.00
13612;BME280;6877;51.436;6.774;2024-02-26T07:53:07;99583.13;;;3.52;100.00
13612;BME280;6877;51.436;6.774;2024-02-26T07:55:39;99593.44;;;3.55;100.00
13612;BME280;6877;51.436;6.774;2024-02-26T07:58:06;99592.59;;;3.54;100.00
13612;BME280;6877;51.436;6.774;2024-02-26T08:00:37;99598.59;;;3.56;100.00
13612;BME280;6877;51.436;6.774;2024-02-26T08:03:04;99598.63;;;3.55;100.00
13612;BME280;6877;51.436;6.774;2024-02-26T08:05:35;99603.78;;;3.55;100.00
13612;BME280;6877;51.436;6.774;2024-02-26T08:08:06;99585.69;;;3.55;100.00
13612;BME280;6877;51.436;6.774;2024-02-26T08:10:38;99601.16;;;3.56;100.00
13612;BME280;6877;51.436;6.774;2024-02-26T08:13:10;99599.44;;;3.58;100.00
13612;BME280;6877;51.436;6.774;2024-02-26T08:15:41;99609.78;;;3.58;100.00
13612;BME280;6877;51.436;6.774;2024-02-26T08:18:08;99605.44;;;3.62;100.00
13612;BME280;6877;51.436;6.774;2024-02-26T08:20:34;99612.38;;;3.60;100.00
13612;BME280;6877;51.436;6.774;2024-02-26T08:23:01;99616.66;;;3.62;100.00
13612;BME280;6877;51.436;6.774;2024-02-26T08:25:28;99614.91;;;3.66;100.00
13612;BME280;6877;51.436;6.774;2024-02-26T08:27:55;99622.69;;;3.66;100.00
13612;BME280;6877;51.436;6.774;2024-02-26T08:30:21;99614.91;;;3.64;100.00
13612;BME280;6877;51.436;6.774;2024-02-26T08:32:48;99619.22;;;3.67;100.00
13612;BME280;6877;51.436;6.774;2024-02-26T08:35:15;99635.59;;;3.67;100.00
13612;BME280;6877;51.436;6.774;2024-02-26T08:37:46;99630.41;;;3.67;100.00
13612;BME280;6877;51.436;6.774;2024-02-26T08:40:13;99631.25;;;3.68;100.00
13612;BME280;6877;51.436;6.774;2024-02-26T08:42:40;99626.94;;;3.70;100.00
13612;BME280;6877;51.436;6.774;2024-02-26T08:45:08;99623.44;;;3.74;100.00
13612;BME280;6877;51.436;6.774;2024-02-26T08:47:39;99634.69;;;3.73;100.00
13612;BME280;6877;51.436;6.774;2024-02-26T08:50:06;99626.03;;;3.74;100.00
13612;BME280;6877;51.436;6.774;2024-02-26T08:52:33;99632.03;;;3.78;100.00
13612;BME280;6877;51.436;6.774;2024-02-26T08:54:59;99631.16;;;3.80;100.00
13612;BME280;6877;51.436;6.774;2024-02-26T08:57:31;99636.34;;;3.80;100.00
13612;BME280;6877;51.436;6.774;2024-02-26T09:00:05;99645.81;;;3.81;100.00
13612;BME280;6877;51.436;6.774;2024-02-26T09:02:37;99640.66;;;3.80;100.00
13612;BME280;6877;51.436;6.774;2024-02-26T09:05:08;99656.16;;;3.83;100.00
13612;BME280;6877;51.436;6.774;2024-02-26T09:07:35;99651.88;;;3.80;100.00
13612;BME280;6877;51.436;6.774;2024-02-26T09:10:01;99649.31;;;3.79;100.00
13612;BME280;6877;51.436;6.774;2024-02-26T09:12:28;99657.91;;;3.79;100.00
13612;BME280;6877;51.436;6.774;2024-02-26T09:15:00;99660.50;;;3.79;100.00
13612;BME280;6877;51.436;6.774;2024-02-26T09:17:31;99669.09;;;3.81;100.00
13612;BME280;6877;51.436;6.774;2024-02-26T09:19:58;99670.84;;;3.81;100.00
13612;BME280;6877;51.436;6.774;2024-02-26T09:22:29;99669.13;;;3.80;100.00
13612;BME280;6877;51.436;6.774;2024-02-26T09:25:01;99669.97;;;3.80;100.00
13612;BME280;6877;51.436;6.774;2024-02-26T09:27:32;99671.69;;;3.81;100.00
13612;BME280;6877;51.436;6.774;2024-02-26T09:29:59;99673.41;;;3.82;100.00
13612;BME280;6877;51.436;6.774;2024-02-26T09:32:30;99680.31;;;3.83;100.00
13612;BME280;6877;51.436;6.774;2024-02-26T09:34:57;99679.44;;;3.83;100.00
13612;BME280;6877;51.436;6.774;2024-02-26T09:37:28;99683.75;;;3.84;100.00
13612;BME280;6877;51.436;6.774;2024-02-26T09:39:55;99684.59;;;3.84;100.00
13612;BME280;6877;51.436;6.774;2024-02-26T09:42:26;99695.81;;;3.86;100.00
13612;BME280;6877;51.436;6.774;2024-02-26T09:44:54;99691.50;;;3.84;100.00
13612;BME280;6877;51.436;6.774;2024-02-26T09:47:26;99689.78;;;3.84;100.00
13612;BME280;6877;51.436;6.774;2024-02-26T09:49:59;99700.13;;;3.84;100.00
13612;BME280;6877;51.436;6.774;2024-02-26T09:52:34;99709.63;;;3.85;100.00
13612;BME280;6877;51.436;6.774;2024-02-26T09:55:04;99713.94;;;3.83;100.00
13612;BME280;6877;51.436;6.774;2024-02-26T09:57:44;99715.66;;;3.84;100.00
13612;BME280;6877;51.436;6.774;2024-02-26T10:00:17;99714.81;;;3.85;100.00
13612;BME280;6877;51.436;6.774;2024-02-26T10:02:51;99723.41;;;3.89;100.00
13612;BME280;6877;51.436;6.774;2024-02-26T10:05:23;99723.41;;;3.87;100.00
13612;BME280;6877;51.436;6.774;2024-02-26T10:07:50;99726.00;;;3.87;100.00
13612;BME280;6877;51.436;6.774;2024-02-26T10:10:23;99726.84;;;3.89;100.00
13612;BME280;6877;51.436;6.774;2024-02-26T10:12:50;99726.00;;;3.87;100.00
13612;BME280;6877;51.436;6.774;2024-02-26T10:15:17;99719.91;;;3.93;100.00
13612;BME280;6877;51.436;6.774;2024-02-26T10:17:48;99727.66;;;3.98;100.00
13612;BME280;6877;51.436;6.774;2024-02-26T10:20:18;99738.00;;;4.01;100.00
13612;BME280;6877;51.436;6.774;2024-02-26T10:22:48;99731.03;;;4.03;100.00
13612;BME280;6877;51.436;6.774;2024-02-26T10:25:19;99733.63;;;4.07;100.00
13612;BME280;6877;51.436;6.774;2024-02-26T10:27:51;99737.06;;;4.06;100.00
13612;BME280;6877;51.436;6.774;2024-02-26T10:30:23;99743.97;;;4.06;100.00
13612;BME280;6877;51.436;6.774;2024-02-26T10:32:52;99743.13;;;4.05;100.00
13612;BME280;6877;51.436;6.774;2024-02-26T10:35:19;99751.72;;;4.06;100.00
13612;BME280;6877;51.436;6.774;2024-02-26T10:37:51;99750.00;;;4.06;100.00
13612;BME280;6877;51.436;6.774;2024-02-26T10:40:18;99755.19;;;4.08;100.00
13612;BME280;6877;51.436;6.774;2024-02-26T10:42:50;99758.63;;;4.10;100.00
13612;BME280;6877;51.436;6.774;2024-02-26T10:45:21;99775.84;;;4.14;100.00
13612;BME280;6877;51.436;6.774;2024-02-26T10:47:48;99773.25;;;4.14;100.00
13612;BME280;6877;51.436;6.774;2024-02-26T10:50:17;99774.97;;;4.16;100.00
13612;BME280;6877;51.436;6.774;2024-02-26T10:52:47;99784.41;;;4.24;100.00
13612;BME280;6877;51.436;6.774;2024-02-26T10:55:21;99786.97;;;4.25;100.00
13612;BME280;6877;51.436;6.774;2024-02-26T10:57:53;99787.84;;;4.24;100.00
13612;BME280;6877;51.436;6.774;2024-02-26T11:00:21;99793.00;;;4.27;100.00
13612;BME280;6877;51.436;6.774;2024-02-26T11:02:48;99790.34;;;4.32;100.00
13612;BME280;6877;51.436;6.774;2024-02-26T11:05:15;99792.03;;;4.39;100.00
13612;BME280;6877;51.436;6.774;2024-02-26T11:07:47;99797.16;;;4.47;100.00
13612;BME280;6877;51.436;6.774;2024-02-26T11:10:15;99791.91;;;4.54;100.00
13612;BME280;6877;51.436;6.774;2024-02-26T11:12:42;99806.50;;;4.63;100.00
13612;BME280;6877;51.436;6.774;2024-02-26T11:15:15;99803.03;;;4.64;100.00
13612;BME280;6877;51.436;6.774;2024-02-26T11:17:47;99806.41;;;4.72;100.00
13612;BME280;6877;51.436;6.774;2024-02-26T11:20:19;99811.50;;;4.81;100.00
13612;BME280;6877;51.436;6.774;2024-02-26T11:22:46;99803.69;;;4.84;100.00
13612;BME280;6877;51.436;6.774;2024-02-26T11:25:12;99802.81;;;4.87;100.00
13612;BME280;6877;51.436;6.774;2024-02-26T11:27:43;99800.19;;;4.88;100.00
13612;BME280;6877;51.436;6.774;2024-02-26T11:30:15;99804.47;;;4.93;100.00
13612;BME280;6877;51.436;6.774;2024-02-26T11:32:48;99809.63;;;4.96;100.00
13612;BME280;6877;51.436;6.774;2024-02-26T11:35:15;99807.91;;;4.95;100.00
13612;BME280;6877;51.436;6.774;2024-02-26T11:37:54;99804.47;;;4.93;100.00
13612;BME280;6877;51.436;6.774;2024-02-26T11:40:22;99807.97;;;4.88;100.00
13612;BME280;6877;51.436;6.774;2024-02-26T11:42:54;99810.56;;;4.90;100.00
13612;BME280;6877;51.436;6.774;2024-02-26T11:48:15;99814.81;;;4.96;100.00
13612;BME280;6877;51.436;6.774;2024-02-26T11:50:51;99819.91;;;5.03;100.00
13612;BME280;6877;51.436;6.774;2024-02-26T11:53:28;99821.53;;;5.14;100.00
13612;BME280;6877;51.436;6.774;2024-02-26T11:58:57;99822.06;;;5.42;100.00
13612;BME280;6877;51.436;6.774;2024-02-26T12:04:11;99819.91;;;5.74;100.00
13612;BME280;6877;51.436;6.774;2024-02-26T12:06:42;99819.16;;;5.66;100.00
13612;BME280;6877;51.436;6.774;2024-02-26T12:09:10;99833.88;;;5.66;100.00
13612;BME280;6877;51.436;6.774;2024-02-26T12:11:42;99825.38;;;5.51;100.00
13612;BME280;6877;51.436;6.774;2024-02-26T12:14:13;99827.16;;;5.48;100.00
13612;BME280;6877;51.436;6.774;2024-02-26T12:16:42;99825.47;;;5.45;100.00
13612;BME280;6877;51.436;6.774;2024-02-26T12:19:16;99828.03;;;5.50;100.00
13612;BME280;6877;51.436;6.774;2024-02-26T12:21:52;99827.16;;;5.48;100.00
13612;BME280;6877;51.436;6.774;2024-02-26T12:24:22;99827.13;;;5.51;100.00
13612;BME280;6877;51.436;6.774;2024-02-26T12:26:48;99826.22;;;5.55;100.00
13612;BME280;6877;51.436;6.774;2024-02-26T12:29:20;99822.72;;;5.59;100.00
13612;BME280;6877;51.436;6.774;2024-02-26T12:31:47;99827.81;;;5.65;100.00
13612;BME280;6877;51.436;6.774;2024-02-26T12:34:15;99829.38;;;5.78;100.00
13612;BME280;6877;51.436;6.774;2024-02-26T12:36:48;99836.34;;;5.73;100.00
13612;BME280;6877;51.436;6.774;2024-02-26T12:39:18;99839.84;;;5.74;100.00
13612;BME280;6877;51.436;6.774;2024-02-26T12:41:46;99846.72;;;5.73;100.00
13612;BME280;6877;51.436;6.774;2024-02-26T12:44:25;99845.06;;;5.71;100.00
13612;BME280;6877;51.436;6.774;2024-02-26T12:47:00;99846.00;;;5.65;100.00
13612;BME280;6877;51.436;6.774;2024-02-26T12:49:26;99851.22;;;5.62;100.00
13612;BME280;6877;51.436;6.774;2024-02-26T12:51:58;99851.22;;;5.62;100.00
13612;BME280;6877;51.436;6.774;2024-02-26T12:54:29;99865.09;;;5.60;100.00
13612;BME280;6877;51.436;6.774;2024-02-26T12:57:03;99869.41;;;5.61;100.00
13612;BME280;6877;51.436;6.774;2024-02-26T12:59:36;99871.19;;;5.58;100.00
13612;BME280;6877;51.436;6.774;2024-02-26T13:02:04;99872.91;;;5.58;100.00
13612;BME280;6877;51.436;6.774;2024-02-26T13:04:31;99890.16;;;5.61;100.00
13612;BME280;6877;51.436;6.774;2024-02-26T13:07:05;99887.53;;;5.64;100.00
13612;BME280;6877;51.436;6.774;2024-02-26T13:09:33;99896.09;;;5.72;100.00
13612;BME280;6877;51.436;6.774;2024-02-26T13:12:06;99891.66;;;5.81;100.00
13612;BME280;6877;51.436;6.774;2024-02-26T13:14:38;99891.56;;;5.88;100.00
13612;BME280;6877;51.436;6.774;2024-02-26T13:17:05;99899.28;;;5.92;100.00
13612;BME280;6877;51.436;6.774;2024-02-26T13:19:31;99891.47;;;5.95;100.00
13612;BME280;6877;51.436;6.774;2024-02-26T13:22:05;99899.16;;;6.06;100.00
13612;BME280;6877;51.436;6.774;2024-02-26T13:24:35;99895.63;;;6.12;100.00
13612;BME280;6877;51.436;6.774;2024-02-26T13:27:03;99897.31;;;6.11;100.00
13612;BME280;6877;51.436;6.774;2024-02-26T13:29:31;99887.81;;;6.10;100.00